sensor_id;sensor_type;location;lat;lon;timestamp;P1;durP1;ratioP1;P2;durP2;ratioP2
14778;SDS011;7481;53.750;10.570;2024-02-26T00:03:53;8.60;;;5.03;;
14778;SDS011;7481;53.750;10.570;2024-02-26T00:08:43;6.30;;;4.67;;
14778;SDS011;7481;53.750;10.570;2024-02-26T00:13:15;7.67;;;5.20;;
14778;SDS011;7481;53.750;10.570;2024-02-26T00:17:43;7.60;;;5.80;;
14778;SDS011;7481;53.750;10.570;2024-02-26T00:22:13;7.57;;;5.43;;
14778;SDS011;7481;53.750;10.570;2024-02-26T00:26:38;6.93;;;4.90;;
14778;SDS011;7481;53.750;10.570;2024-02-26T00:31:02;5.90;;;4.23;;
14778;SDS011;7481;53.750;10.570;2024-02-26T00:35:41;5.20;;;4.33;;
14778;SDS011;7481;53.750;10.570;2024-02-26T00:40:16;5.47;;;4.70;;
14778;SDS011;7481;53.750;10.570;2024-02-26T00:45:12;7.70;;;5.23;;
14778;SDS011;7481;53.750;10.570;2024-02-26T00:49:44;7.50;;;4.83;;
14778;SDS011;7481;53.750;10.570;2024-02-26T00:54:23;7.83;;;5.10;;
14778;SDS011;7481;53.750;10.570;2024-02-26T00:59:02;5.87;;;4.80;;
14778;SDS011;7481;53.750;10.570;2024-02-26T01:03:31;6.17;;;4.93;;
14778;SDS011;7481;53.750;10.570;2024-02-26T01:08:10;7.33;;;5.20;;
14778;SDS011;7481;53.750;10.570;2024-02-26T01:13:08;5.93;;;4.57;;
14778;SDS011;7481;53.750;10.570;2024-02-26T01:17:40;5.97;;;4.37;;
14778;SDS011;7481;53.750;10.570;2024-02-26T01:22:10;5.90;;;4.40;;
14778;SDS011;7481;53.750;10.570;2024-02-26T01:26:49;5.70;;;4.17;;
14778;SDS011;7481;53.750;10.570;2024-02-26T01:31:15;6.23;;;4.10;;
14778;SDS011;7481;53.750;10.570;2024-02-26T01:35:39;5.87;;;4.70;;
14778;SDS011;7481;53.750;10.570;2024-02-26T01:40:07;5.57;;;4.17;;
14778;SDS011;7481;53.750;10.570;2024-02-26T01:44:33;4.60;;;4.07;;
14778;SDS011;7481;53.750;10.570;2024-02-26T01:49:01;12.70;;;3.87;;
14778;SDS011;7481;53.750;10.570;2024-02-26T01:53:29;4.07;;;3.10;;
14778;SDS011;7481;53.750;10.570;2024-02-26T01:58:00;3.97;;;3.10;;
14778;SDS011;7481;53.750;10.570;2024-02-26T02:02:35;3.73;;;3.10;;
14778;SDS011;7481;53.750;10.570;2024-02-26T02:07:03;3.07;;;2.77;;
14778;SDS011;7481;53.750;10.570;2024-02-26T02:11:41;3.93;;;3.10;;
14778;SDS011;7481;53.750;10.570;2024-02-26T02:16:06;4.03;;;3.17;;
14778;SDS011;7481;53.750;10.570;2024-02-26T02:20:36;3.80;;;3.17;;
14778;SDS011;7481;53.750;10.570;2024-02-26T02:25:09;5.67;;;3.83;;
14778;SDS011;7481;53.750;10.570;2024-02-26T02:30:21;5.50;;;3.67;;
14778;SDS011;7481;53.750;10.570;2024-02-26T02:35:05;4.50;;;3.70;;
14778;SDS011;7481;53.750;10.570;2024-02-26T02:39:30;5.30;;;3.60;;
14778;SDS011;7481;53.750;10.570;2024-02-26T02:43:58;4.67;;;3.60;;
14778;SDS011;7481;53.750;10.570;2024-02-26T02:48:55;5.40;;;3.70;;
14778;SDS011;7481;53.750;10.570;2024-02-26T02:53:25;35.07;;;4.33;;
14778;SDS011;7481;53.750;10.570;2024-02-26T02:58:03;19.77;;;4.37;;
14778;SDS011;7481;53.750;10.570;2024-02-26T03:02:30;19.77;;;4.37;;
14778;SDS011;7481;53.750;10.570;2024-02-26T03:07:05;11.60;;;4.57;;
14778;SDS011;7481;53.750;10.570;2024-02-26T03:11:40;42.63;;;5.70;;
14778;SDS011;7481;53.750;10.570;2024-02-26T03:16:07;51.37;;;6.23;;
14778;SDS011;7481;53.750;10.570;2024-02-26T03:20:39;18.30;;;5.03;;
14778;SDS011;7481;53.750;10.570;2024-02-26T03:25:18;64.47;;;8.40;;
14778;SDS011;7481;53.750;10.570;2024-02-26T03:29:48;61.03;;;7.13;;
14778;SDS011;7481;53.750;10.570;2024-02-26T03:34:21;74.97;;;8.73;;
14778;SDS011;7481;53.750;10.570;2024-02-26T03:38:52;94.87;;;9.50;;
14778;SDS011;7481;53.750;10.570;2024-02-26T03:43:19;63.80;;;7.00;;
14778;SDS011;7481;53.750;10.570;2024-02-26T03:47:42;39.93;;;7.10;;
14778;SDS011;7481;53.750;10.570;2024-02-26T03:52:30;18.33;;;4.57;;
14778;SDS011;7481;53.750;10.570;2024-02-26T03:57:00;37.47;;;5.20;;
14778;SDS011;7481;53.750;10.570;2024-02-26T04:01:30;11.87;;;3.90;;
14778;SDS011;7481;53.750;10.570;2024-02-26T04:06:10;11.97;;;4.43;;
14778;SDS011;7481;53.750;10.570;2024-02-26T04:10:47;15.90;;;4.40;;
14778;SDS011;7481;53.750;10.570;2024-02-26T04:15:12;24.33;;;4.57;;
14778;SDS011;7481;53.750;10.570;2024-02-26T04:19:38;7.57;;;4.07;;
14778;SDS011;7481;53.750;10.570;2024-02-26T04:24:04;12.13;;;4.40;;
14778;SDS011;7481;53.750;10.570;2024-02-26T04:28:40;11.73;;;5.73;;
14778;SDS011;7481;53.750;10.570;2024-02-26T04:33:19;20.90;;;5.13;;
14778;SDS011;7481;53.750;10.570;2024-02-26T04:38:00;5.13;;;4.10;;
14778;SDS011;7481;53.750;10.570;2024-02-26T04:43:25;16.67;;;4.83;;
14778;SDS011;7481;53.750;10.570;2024-02-26T04:48:10;6.07;;;4.83;;
14778;SDS011;7481;53.750;10.570;2024-02-26T04:52:39;21.40;;;6.47;;
14778;SDS011;7481;53.750;10.570;2024-02-26T04:57:20;34.53;;;7.03;;
14778;SDS011;7481;53.750;10.570;2024-02-26T05:01:48;9.77;;;5.83;;
14778;SDS011;7481;53.750;10.570;2024-02-26T05:06:18;7.00;;;5.50;;
14778;SDS011;7481;53.750;10.570;2024-02-26T05:10:45;7.00;;;5.13;;
14778;SDS011;7481;53.750;10.570;2024-02-26T05:15:13;6.43;;;5.60;;
14778;SDS011;7481;53.750;10.570;2024-02-26T05:19:42;7.60;;;5.87;;
14778;SDS011;7481;53.750;10.570;2024-02-26T05:24:31;7.10;;;5.73;;
14778;SDS011;7481;53.750;10.570;2024-02-26T05:29:06;6.40;;;5.37;;
14778;SDS011;7481;53.750;10.570;2024-02-26T05:33:41;7.17;;;5.20;;
14778;SDS011;7481;53.750;10.570;2024-02-26T05:38:11;7.83;;;5.83;;
14778;SDS011;7481;53.750;10.570;2024-02-26T05:42:38;7.60;;;5.27;;
14778;SDS011;7481;53.750;10.570;2024-02-26T05:47:01;5.50;;;4.83;;
14778;SDS011;7481;53.750;10.570;2024-02-26T05:51:33;7.47;;;5.73;;
14778;SDS011;7481;53.750;10.570;2024-02-26T05:56:08;6.53;;;5.30;;
14778;SDS011;7481;53.750;10.570;2024-02-26T06:00:44;8.52;;;7.35;;
14778;SDS011;7481;53.750;10.570;2024-02-26T06:05:09;7.13;;;5.40;;
14778;SDS011;7481;53.750;10.570;2024-02-26T06:09:36;7.40;;;5.90;;
14778;SDS011;7481;53.750;10.570;2024-02-26T06:14:07;5.80;;;5.20;;
14778;SDS011;7481;53.750;10.570;2024-02-26T06:18:47;6.50;;;5.47;;
14778;SDS011;7481;53.750;10.570;2024-02-26T06:23:16;9.00;;;8.10;;
14778;SDS011;7481;53.750;10.570;2024-02-26T06:27:39;6.13;;;5.33;;
14778;SDS011;7481;53.750;10.570;2024-02-26T06:32:03;6.80;;;5.80;;
14778;SDS011;7481;53.750;10.570;2024-02-26T06:36:26;7.93;;;6.10;;
14778;SDS011;7481;53.750;10.570;2024-02-26T06:40:50;6.87;;;5.67;;
14778;SDS011;7481;53.750;10.570;2024-02-26T06:45:16;7.80;;;6.10;;
14778;SDS011;7481;53.750;10.570;2024-02-26T06:49:42;9.70;;;7.03;;
14778;SDS011;7481;53.750;10.570;2024-02-26T06:54:06;12.53;;;6.43;;
14778;SDS011;7481;53.750;10.570;2024-02-26T06:58:31;23.83;;;6.80;;
14778;SDS011;7481;53.750;10.570;2024-02-26T07:02:56;14.82;;;9.95;;
14778;SDS011;7481;53.750;10.570;2024-02-26T07:07:29;20.33;;;11.30;;
14778;SDS011;7481;53.750;10.570;2024-02-26T07:11:54;30.03;;;9.27;;
14778;SDS011;7481;53.750;10.570;2024-02-26T07:16:22;37.83;;;9.47;;
14778;SDS011;7481;53.750;10.570;2024-02-26T07:20:46;30.63;;;9.50;;
14778;SDS011;7481;53.750;10.570;2024-02-26T07:25:10;34.87;;;9.40;;
14778;SDS011;7481;53.750;10.570;2024-02-26T07:29:40;43.00;;;9.93;;
14778;SDS011;7481;53.750;10.570;2024-02-26T07:34:14;31.90;;;9.77;;
14778;SDS011;7481;53.750;10.570;2024-02-26T07:38:38;36.43;;;10.53;;
14778;SDS011;7481;53.750;10.570;2024-02-26T07:43:05;40.30;;;10.37;;
14778;SDS011;7481;53.750;10.570;2024-02-26T07:47:28;50.40;;;11.87;;
14778;SDS011;7481;53.750;10.570;2024-02-26T07:51:53;27.17;;;10.17;;
14778;SDS011;7481;53.750;10.570;2024-02-26T07:56:17;28.13;;;10.07;;
14778;SDS011;7481;53.750;10.570;2024-02-26T08:00:52;40.30;;;10.60;;
14778;SDS011;7481;53.750;10.570;2024-02-26T08:05:16;24.73;;;9.53;;
14778;SDS011;7481;53.750;10.570;2024-02-26T08:09:40;15.97;;;9.13;;
14778;SDS011;7481;53.750;10.570;2024-02-26T08:14:04;20.60;;;9.97;;
14778;SDS011;7481;53.750;10.570;2024-02-26T08:18:27;46.90;;;11.03;;
14778;SDS011;7481;53.750;10.570;2024-02-26T08:22:51;33.10;;;10.73;;
14778;SDS011;7481;53.750;10.570;2024-02-26T08:27:30;31.97;;;10.30;;
14778;SDS011;7481;53.750;10.570;2024-02-26T08:31:57;50.70;;;10.90;;
14778;SDS011;7481;53.750;10.570;2024-02-26T08:36:20;77.77;;;12.07;;
14778;SDS011;7481;53.750;10.570;2024-02-26T08:40:47;76.87;;;11.77;;
14778;SDS011;7481;53.750;10.570;2024-02-26T08:45:10;62.47;;;10.93;;
14778;SDS011;7481;53.750;10.570;2024-02-26T08:49:35;39.83;;;9.83;;
14778;SDS011;7481;53.750;10.570;2024-02-26T08:54:00;55.45;;;14.70;;
14778;SDS011;7481;53.750;10.570;2024-02-26T08:58:24;27.63;;;10.23;;
14778;SDS011;7481;53.750;10.570;2024-02-26T09:02:48;52.63;;;11.33;;
14778;SDS011;7481;53.750;10.570;2024-02-26T09:07:13;41.33;;;11.20;;
14778;SDS011;7481;53.750;10.570;2024-02-26T09:11:37;41.53;;;11.53;;
14778;SDS011;7481;53.750;10.570;2024-02-26T09:16:01;27.27;;;9.83;;
14778;SDS011;7481;53.750;10.570;2024-02-26T09:20:25;17.33;;;10.57;;
14778;SDS011;7481;53.750;10.570;2024-02-26T09:24:49;22.43;;;11.63;;
14778;SDS011;7481;53.750;10.570;2024-02-26T09:29:13;30.90;;;12.43;;
14778;SDS011;7481;53.750;10.570;2024-02-26T09:33:36;27.57;;;12.50;;
14778;SDS011;7481;53.750;10.570;2024-02-26T09:38:01;25.43;;;12.47;;
14778;SDS011;7481;53.750;10.570;2024-02-26T09:42:25;34.87;;;15.07;;
14778;SDS011;7481;53.750;10.570;2024-02-26T09:46:48;30.03;;;15.83;;
14778;SDS011;7481;53.750;10.570;2024-02-26T09:51:12;31.43;;;16.50;;
14778;SDS011;7481;53.750;10.570;2024-02-26T09:55:36;32.97;;;16.67;;
14778;SDS011;7481;53.750;10.570;2024-02-26T09:59:59;30.20;;;16.63;;
14778;SDS011;7481;53.750;10.570;2024-02-26T10:04:25;34.70;;;17.73;;
14778;SDS011;7481;53.750;10.570;2024-02-26T10:08:48;37.43;;;17.30;;
14778;SDS011;7481;53.750;10.570;2024-02-26T10:13:15;31.57;;;16.03;;
14778;SDS011;7481;53.750;10.570;2024-02-26T10:17:39;34.87;;;16.30;;
14778;SDS011;7481;53.750;10.570;2024-02-26T10:22:03;37.47;;;16.57;;
14778;SDS011;7481;53.750;10.570;2024-02-26T10:26:26;33.17;;;17.13;;
14778;SDS011;7481;53.750;10.570;2024-02-26T10:30:52;33.07;;;16.77;;
14778;SDS011;7481;53.750;10.570;2024-02-26T10:35:15;33.03;;;15.90;;
14778;SDS011;7481;53.750;10.570;2024-02-26T10:39:46;27.73;;;15.30;;
14778;SDS011;7481;53.750;10.570;2024-02-26T10:44:11;33.43;;;17.00;;
14778;SDS011;7481;53.750;10.570;2024-02-26T10:48:40;33.03;;;16.33;;
14778;SDS011;7481;53.750;10.570;2024-02-26T10:53:11;30.77;;;15.77;;
14778;SDS011;7481;53.750;10.570;2024-02-26T10:57:40;29.17;;;15.90;;
14778;SDS011;7481;53.750;10.570;2024-02-26T11:02:08;29.67;;;15.33;;
14778;SDS011;7481;53.750;10.570;2024-02-26T11:06:34;28.90;;;16.23;;
14778;SDS011;7481;53.750;10.570;2024-02-26T11:10:58;32.87;;;16.17;;
14778;SDS011;7481;53.750;10.570;2024-02-26T11:15:32;28.07;;;15.30;;
14778;SDS011;7481;53.750;10.570;2024-02-26T11:19:58;28.00;;;15.43;;
14778;SDS011;7481;53.750;10.570;2024-02-26T11:24:22;30.90;;;15.23;;
14778;SDS011;7481;53.750;10.570;2024-02-26T11:28:48;28.83;;;14.83;;
14778;SDS011;7481;53.750;10.570;2024-02-26T11:33:20;25.30;;;14.77;;
14778;SDS011;7481;53.750;10.570;2024-02-26T11:37:55;22.40;;;14.03;;
14778;SDS011;7481;53.750;10.570;2024-02-26T11:42:24;24.80;;;15.07;;
14778;SDS011;7481;53.750;10.570;2024-02-26T11:46:57;25.83;;;14.47;;
14778;SDS011;7481;53.750;10.570;2024-02-26T11:51:25;25.17;;;14.50;;
14778;SDS011;7481;53.750;10.570;2024-02-26T12:00:47;25.27;;;14.80;;
14778;SDS011;7481;53.750;10.570;2024-02-26T12:05:13;23.57;;;13.77;;
14778;SDS011;7481;53.750;10.570;2024-02-26T12:09:40;26.43;;;13.70;;
14778;SDS011;7481;53.750;10.570;2024-02-26T12:14:07;23.60;;;13.87;;
14778;SDS011;7481;53.750;10.570;2024-02-26T12:18:30;26.10;;;14.73;;
14778;SDS011;7481;53.750;10.570;2024-02-26T12:22:55;26.20;;;14.37;;
14778;SDS011;7481;53.750;10.570;2024-02-26T12:27:20;24.27;;;14.20;;
14778;SDS011;7481;53.750;10.570;2024-02-26T12:31:44;24.23;;;14.53;;
14778;SDS011;7481;53.750;10.570;2024-02-26T12:36:08;26.67;;;16.17;;
14778;SDS011;7481;53.750;10.570;2024-02-26T12:40:46;25.30;;;15.37;;
14778;SDS011;7481;53.750;10.570;2024-02-26T12:45:14;25.03;;;15.07;;
14778;SDS011;7481;53.750;10.570;2024-02-26T12:49:38;25.83;;;15.67;;
14778;SDS011;7481;53.750;10.570;2024-02-26T12:54:03;27.53;;;16.13;;
14778;SDS011;7481;53.750;10.570;2024-02-26T12:58:30;25.00;;;14.67;;
14778;SDS011;7481;53.750;10.570;2024-02-26T13:03:02;23.53;;;14.43;;
14778;SDS011;7481;53.750;10.570;2024-02-26T13:07:27;21.87;;;13.67;;
14778;SDS011;7481;53.750;10.570;2024-02-26T13:11:56;24.07;;;14.13;;
14778;SDS011;7481;53.750;10.570;2024-02-26T13:16:24;21.53;;;13.37;;
14778;SDS011;7481;53.750;10.570;2024-02-26T13:20:47;23.50;;;13.53;;
14778;SDS011;7481;53.750;10.570;2024-02-26T13:25:11;23.00;;;14.03;;
14778;SDS011;7481;53.750;10.570;2024-02-26T13:29:41;28.87;;;15.83;;
14778;SDS011;7481;53.750;10.570;2024-02-26T13:34:09;26.93;;;14.73;;
14778;SDS011;7481;53.750;10.570;2024-02-26T13:38:54;31.17;;;16.07;;
14778;SDS011;7481;53.750;10.570;2024-02-26T13:43:19;27.97;;;15.67;;
14778;SDS011;7481;53.750;10.570;2024-02-26T13:47:41;26.80;;;15.47;;
14778;SDS011;7481;53.750;10.570;2024-02-26T13:52:05;28.63;;;15.87;;
14778;SDS011;7481;53.750;10.570;2024-02-26T13:56:28;27.33;;;16.03;;
14778;SDS011;7481;53.750;10.570;2024-02-26T14:00:58;26.80;;;15.53;;
14778;SDS011;7481;53.750;10.570;2024-02-26T14:05:23;25.20;;;14.20;;
14778;SDS011;7481;53.750;10.570;2024-02-26T14:09:48;22.73;;;13.80;;
14778;SDS011;7481;53.750;10.570;2024-02-26T14:14:15;22.93;;;13.73;;
14778;SDS011;7481;53.750;10.570;2024-02-26T14:18:39;21.63;;;13.07;;
14778;SDS011;7481;53.750;10.570;2024-02-26T14:23:21;23.70;;;13.40;;
14778;SDS011;7481;53.750;10.570;2024-02-26T14:27:46;22.90;;;13.60;;
14778;SDS011;7481;53.750;10.570;2024-02-26T14:32:15;22.30;;;12.83;;
14778;SDS011;7481;53.750;10.570;2024-02-26T14:36:41;24.30;;;13.03;;
14778;SDS011;7481;53.750;10.570;2024-02-26T14:41:09;20.30;;;12.20;;
14778;SDS011;7481;53.750;10.570;2024-02-26T14:45:41;20.53;;;12.17;;
14778;SDS011;7481;53.750;10.570;2024-02-26T14:50:06;21.73;;;12.50;;
14778;SDS011;7481;53.750;10.570;2024-02-26T14:54:32;21.67;;;13.37;;
14778;SDS011;7481;53.750;10.570;2024-02-26T14:59:02;19.03;;;12.83;;
14778;SDS011;7481;53.750;10.570;2024-02-26T15:03:25;19.87;;;12.47;;
14778;SDS011;7481;53.750;10.570;2024-02-26T15:07:48;17.40;;;11.67;;
14778;SDS011;7481;53.750;10.570;2024-02-26T15:12:13;20.60;;;12.57;;
14778;SDS011;7481;53.750;10.570;2024-02-26T15:16:38;19.30;;;11.57;;
14778;SDS011;7481;53.750;10.570;2024-02-26T15:21:03;16.27;;;11.27;;
14778;SDS011;7481;53.750;10.570;2024-02-26T15:25:26;19.27;;;12.33;;
14778;SDS011;7481;53.750;10.570;2024-02-26T15:30:06;19.40;;;12.33;;
14778;SDS011;7481;53.750;10.570;2024-02-26T15:34:33;20.07;;;12.70;;
14778;SDS011;7481;53.750;10.570;2024-02-26T15:38:58;21.43;;;13.20;;
14778;SDS011;7481;53.750;10.570;2024-02-26T15:43:32;19.30;;;11.97;;
14778;SDS011;7481;53.750;10.570;2024-02-26T15:47:57;19.20;;;12.90;;
14778;SDS011;7481;53.750;10.570;2024-02-26T15:52:22;18.10;;;12.37;;
14778;SDS011;7481;53.750;10.570;2024-02-26T15:56:48;16.43;;;11.47;;
14778;SDS011;7481;53.750;10.570;2024-02-26T16:01:13;19.60;;;11.73;;
14778;SDS011;7481;53.750;10.570;2024-02-26T16:05:45;16.30;;;10.93;;
14778;SDS011;7481;53.750;10.570;2024-02-26T16:10:23;18.57;;;11.83;;
14778;SDS011;7481;53.750;10.570;2024-02-26T16:14:53;16.77;;;11.37;;
14778;SDS011;7481;53.750;10.570;2024-02-26T16:19:23;17.17;;;11.57;;
14778;SDS011;7481;53.750;10.570;2024-02-26T16:23:54;18.90;;;11.70;;
14778;SDS011;7481;53.750;10.570;2024-02-26T16:28:17;18.27;;;11.70;;
14778;SDS011;7481;53.750;10.570;2024-02-26T16:32:45;18.20;;;10.70;;
14778;SDS011;7481;53.750;10.570;2024-02-26T16:37:09;17.80;;;10.93;;
14778;SDS011;7481;53.750;10.570;2024-02-26T16:41:34;15.50;;;10.63;;
14778;SDS011;7481;53.750;10.570;2024-02-26T16:46:03;15.40;;;10.37;;
14778;SDS011;7481;53.750;10.570;2024-02-26T16:50:33;15.83;;;10.03;;
14778;SDS011;7481;53.750;10.570;2024-02-26T16:55:07;14.70;;;9.97;;
14778;SDS011;7481;53.750;10.570;2024-02-26T16:59:37;16.80;;;11.10;;
14778;SDS011;7481;53.750;10.570;2024-02-26T17:04:00;15.73;;;10.07;;
14778;SDS011;7481;53.750;10.570;2024-02-26T17:08:30;16.27;;;10.03;;
14778;SDS011;7481;53.750;10.570;2024-02-26T17:13:05;14.97;;;9.90;;
14778;SDS011;7481;53.750;10.570;2024-02-26T17:17:33;17.10;;;10.63;;
14778;SDS011;7481;53.750;10.570;2024-02-26T17:22:06;15.47;;;11.13;;
14778;SDS011;7481;53.750;10.570;2024-02-26T17:26:34;16.70;;;10.00;;
14778;SDS011;7481;53.750;10.570;2024-02-26T17:30:59;16.00;;;10.27;;
14778;SDS011;7481;53.750;10.570;2024-02-26T17:35:27;14.57;;;9.40;;
14778;SDS011;7481;53.750;10.570;2024-02-26T17:39:59;13.47;;;8.93;;
14778;SDS011;7481;53.750;10.570;2024-02-26T17:44:34;16.73;;;9.67;;
14778;SDS011;7481;53.750;10.570;2024-02-26T17:49:30;14.90;;;9.57;;
14778;SDS011;7481;53.750;10.570;2024-02-26T17:53:56;14.47;;;9.40;;
14778;SDS011;7481;53.750;10.570;2024-02-26T17:58:23;15.50;;;10.07;;
14778;SDS011;7481;53.750;10.570;2024-02-26T18:02:49;23.30;;;9.63;;
14778;SDS011;7481;53.750;10.570;2024-02-26T18:07:19;14.90;;;9.37;;
14778;SDS011;7481;53.750;10.570;2024-02-26T18:11:46;16.03;;;10.00;;
14778;SDS011;7481;53.750;10.570;2024-02-26T18:16:16;14.30;;;9.23;;
14778;SDS011;7481;53.750;10.570;2024-02-26T18:20:44;13.90;;;9.57;;
14778;SDS011;7481;53.750;10.570;2024-02-26T18:25:12;14.93;;;9.80;;
14778;SDS011;7481;53.750;10.570;2024-02-26T18:29:40;15.40;;;9.23;;
14778;SDS011;7481;53.750;10.570;2024-02-26T18:34:07;12.10;;;8.97;;
14778;SDS011;7481;53.750;10.570;2024-02-26T18:38:32;15.33;;;9.30;;
14778;SDS011;7481;53.750;10.570;2024-02-26T18:43:06;14.00;;;9.37;;
14778;SDS011;7481;53.750;10.570;2024-02-26T18:47:34;13.57;;;9.33;;
14778;SDS011;7481;53.750;10.570;2024-02-26T18:52:03;13.47;;;8.83;;
14778;SDS011;7481;53.750;10.570;2024-02-26T18:56:30;13.20;;;8.77;;
14778;SDS011;7481;53.750;10.570;2024-02-26T19:00:58;15.13;;;9.30;;
14778;SDS011;7481;53.750;10.570;2024-02-26T19:05:24;15.20;;;9.67;;
14778;SDS011;7481;53.750;10.570;2024-02-26T19:10:16;15.57;;;9.13;;
14778;SDS011;7481;53.750;10.570;2024-02-26T19:14:45;16.60;;;9.60;;
14778;SDS011;7481;53.750;10.570;2024-02-26T19:19:19;13.90;;;9.57;;
14778;SDS011;7481;53.750;10.570;2024-02-26T19:24:00;14.63;;;8.87;;
14778;SDS011;7481;53.750;10.570;2024-02-26T19:28:30;16.70;;;9.50;;
14778;SDS011;7481;53.750;10.570;2024-02-26T19:33:02;16.23;;;9.30;;
14778;SDS011;7481;53.750;10.570;2024-02-26T19:37:35;16.53;;;9.57;;
14778;SDS011;7481;53.750;10.570;2024-02-26T19:42:06;18.13;;;9.93;;
14778;SDS011;7481;53.750;10.570;2024-02-26T19:46:31;14.93;;;9.97;;
14778;SDS011;7481;53.750;10.570;2024-02-26T19:51:04;16.07;;;10.17;;
14778;SDS011;7481;53.750;10.570;2024-02-26T19:55:48;17.43;;;9.87;;
14778;SDS011;7481;53.750;10.570;2024-02-26T20:00:18;17.63;;;10.20;;
14778;SDS011;7481;53.750;10.570;2024-02-26T20:04:59;16.03;;;10.03;;
14778;SDS011;7481;53.750;10.570;2024-02-26T20:09:31;16.80;;;10.07;;
14778;SDS011;7481;53.750;10.570;2024-02-26T20:13:59;16.50;;;10.37;;
14778;SDS011;7481;53.750;10.570;2024-02-26T20:18:25;21.57;;;11.50;;
14778;SDS011;7481;53.750;10.570;2024-02-26T20:22:54;22.23;;;13.03;;
14778;SDS011;7481;53.750;10.570;2024-02-26T20:27:17;21.37;;;13.07;;
14778;SDS011;7481;53.750;10.570;2024-02-26T20:31:53;22.40;;;12.63;;
14778;SDS011;7481;53.750;10.570;2024-02-26T20:36:24;24.07;;;13.13;;
14778;SDS011;7481;53.750;10.570;2024-02-26T20:40:57;29.47;;;13.13;;
14778;SDS011;7481;53.750;10.570;2024-02-26T20:45:26;27.00;;;13.77;;
14778;SDS011;7481;53.750;10.570;2024-02-26T20:49:54;36.13;;;14.43;;
14778;SDS011;7481;53.750;10.570;2024-02-26T20:54:34;24.83;;;12.83;;
14778;SDS011;7481;53.750;10.570;2024-02-26T20:59:12;32.00;;;13.90;;
14778;SDS011;7481;53.750;10.570;2024-02-26T21:03:35;34.63;;;14.63;;
14778;SDS011;7481;53.750;10.570;2024-02-26T21:08:16;29.07;;;14.30;;
14778;SDS011;7481;53.750;10.570;2024-02-26T21:12:58;30.13;;;14.87;;
14778;SDS011;7481;53.750;10.570;2024-02-26T21:17:21;37.37;;;14.60;;
14778;SDS011;7481;53.750;10.570;2024-02-26T21:21:48;39.67;;;14.13;;
14778;SDS011;7481;53.750;10.570;2024-02-26T21:26:30;48.00;;;24.23;;
14778;SDS011;7481;53.750;10.570;2024-02-26T21:31:05;35.90;;;16.67;;
14778;SDS011;7481;53.750;10.570;2024-02-26T21:35:32;34.13;;;15.13;;
14778;SDS011;7481;53.750;10.570;2024-02-26T21:40:11;41.93;;;16.73;;
14778;SDS011;7481;53.750;10.570;2024-02-26T21:45:03;46.57;;;16.73;;
14778;SDS011;7481;53.750;10.570;2024-02-26T21:49:30;64.00;;;17.90;;
14778;SDS011;7481;53.750;10.570;2024-02-26T21:54:04;34.17;;;16.07;;
14778;SDS011;7481;53.750;10.570;2024-02-26T21:58:31;40.13;;;16.03;;
14778;SDS011;7481;53.750;10.570;2024-02-26T22:02:58;49.03;;;18.03;;
14778;SDS011;7481;53.750;10.570;2024-02-26T22:07:33;46.10;;;16.20;;
14778;SDS011;7481;53.750;10.570;2024-02-26T22:12:03;39.43;;;15.77;;
14778;SDS011;7481;53.750;10.570;2024-02-26T22:16:34;44.73;;;16.57;;
14778;SDS011;7481;53.750;10.570;2024-02-26T22:21:04;43.53;;;17.23;;
14778;SDS011;7481;53.750;10.570;2024-02-26T22:25:31;54.97;;;17.70;;
14778;SDS011;7481;53.750;10.570;2024-02-26T22:30:03;48.80;;;18.30;;
14778;SDS011;7481;53.750;10.570;2024-02-26T22:34:38;63.73;;;17.70;;
14778;SDS011;7481;53.750;10.570;2024-02-26T22:39:12;62.67;;;18.83;;
14778;SDS011;7481;53.750;10.570;2024-02-26T22:43:46;47.47;;;18.17;;
14778;SDS011;7481;53.750;10.570;2024-02-26T22:48:14;59.30;;;20.67;;
14778;SDS011;7481;53.750;10.570;2024-02-26T22:52:48;45.43;;;16.57;;
14778;SDS011;7481;53.750;10.570;2024-02-26T22:57:18;61.00;;;27.67;;
14778;SDS011;7481;53.750;10.570;2024-02-26T23:01:51;48.37;;;19.00;;
14778;SDS011;7481;53.750;10.570;2024-02-26T23:06:42;40.63;;;17.67;;
14778;SDS011;7481;53.750;10.570;2024-02-26T23:11:20;46.90;;;17.70;;
14778;SDS011;7481;53.750;10.570;2024-02-26T23:15:49;45.97;;;20.07;;
14778;SDS011;7481;53.750;10.570;2024-02-26T23:20:20;42.67;;;18.73;;
14778;SDS011;7481;53.750;10.570;2024-02-26T23:24:48;46.27;;;19.10;;
14778;SDS011;7481;53.750;10.570;2024-02-26T23:29:24;47.90;;;19.00;;
14778;SDS011;7481;53.750;10.570;2024-02-26T23:33:53;49.10;;;21.13;;
14778;SDS011;7481;53.750;10.570;2024-02-26T23:38:26;46.30;;;18.83;;
14778;SDS011;7481;53.750;10.570;2024-02-26T23:42:53;40.93;;;18.60;;
14778;SDS011;7481;53.750;10.570;2024-02-26T23:47:29;52.17;;;19.20;;
14778;SDS011;7481;53.750;10.570;2024-02-26T23:52:21;38.90;;;18.63;;
14778;SDS011;7481;53.750;10.570;2024-02-26T23:56:53;41.57;;;18.83;;
